Time;durP1;ratioP1;P1;durP2;ratioP2;P2;SDS_P1;SDS_P2;PMS_P1;PMS_P2;Temp;Humidity;BMP_temperature;BMP_pressure;BME280_temperature;BME280_humidity;BME280_pressure;Samples;Min_cycle;Max_cycle;Signal;HPM_P1;HPM_P2
2023/03/28 00:01:08;;;;;;;1.30;1.20;;;;;;;3.53;67.04;101927.78;6204987;28;20229;-70
2023/03/28 00:04:30;;;;;;;2.63;0.80;;;;;;;3.50;66.85;101927.97;6205350;28;20233;-70
2023/03/28 00:07:52;;;;;;;0.93;0.80;;;;;;;3.56;67.19;101932.81;6198113;28;20232;-71
2023/03/28 00:11:18;;;;;;;1.10;1.10;;;;;;;3.54;65.93;101939.91;6201692;28;20226;-70
2023/03/28 00:14:39;;;;;;;1.40;1.20;;;;;;;3.44;66.96;101944.84;6204008;28;20313;-69
2023/03/28 00:18:01;;;;;;;2.37;1.80;;;;;;;3.49;66.74;101941.94;6196227;28;20607;-70
2023/03/28 00:21:24;;;;;;;1.70;1.00;;;;;;;3.50;67.00;101961.91;6205214;28;20703;-70
2023/03/28 00:24:47;;;;;;;1.27;1.10;;;;;;;3.50;66.66;101965.34;6193400;28;20498;-71
2023/03/28 00:28:09;;;;;;;1.23;0.97;;;;;;;3.42;66.19;101970.19;6188302;28;20221;-71
2023/03/28 00:31:30;;;;;;;1.63;1.53;;;;;;;3.47;66.24;101975.13;6196372;28;20355;-70
2023/03/28 00:34:53;;;;;;;2.27;1.27;;;;;;;3.39;67.27;101978.22;6202136;28;20232;-70
2023/03/28 00:38:14;;;;;;;2.30;1.07;;;;;;;3.32;67.54;101980.38;6189013;28;21704;-70
2023/03/28 00:41:38;;;;;;;1.87;1.77;;;;;;;3.32;66.75;101992.59;6188754;28;20237;-71
2023/03/28 00:44:59;;;;;;;3.97;1.20;;;;;;;3.27;66.77;101992.84;6208477;28;20229;-70
2023/03/28 00:48:21;;;;;;;5.20;2.03;;;;;;;3.24;66.39;101994.81;6191895;28;20232;-70
2023/03/28 00:51:47;;;;;;;2.20;2.00;;;;;;;3.18;67.17;101995.16;6203117;28;20228;-70
2023/03/28 00:55:12;;;;;;;1.73;1.63;;;;;;;3.16;67.20;102010.94;6208838;28;20225;-70
2023/03/28 00:58:37;;;;;;;4.50;1.83;;;;;;;3.12;66.09;102004.22;6157545;28;20234;-70
2023/03/28 01:01:59;;;;;;;2.33;1.60;;;;;;;3.08;66.04;102014.00;6192044;28;20237;-70
2023/03/28 01:05:25;;;;;;;1.20;1.00;;;;;;;3.04;65.54;102027.31;6195694;28;20753;-71
2023/03/28 01:08:49;;;;;;;2.40;1.63;;;;;;;3.05;66.04;102022.00;6178189;28;20217;-70
2023/03/28 01:12:11;;;;;;;2.37;1.47;;;;;;;3.00;65.44;102028.41;6193490;28;20748;-70
2023/03/28 01:15:32;;;;;;;2.20;1.13;;;;;;;2.98;66.42;102038.94;6198596;28;20640;-70
2023/03/28 01:19:00;;;;;;;8.87;1.63;;;;;;;3.02;65.41;102047.41;6164321;28;20234;-71
2023/03/28 01:22:51;;;;;;;1.40;1.07;;;;;;;2.92;65.07;102051.50;6181829;28;20324;-70
2023/03/28 01:26:40;;;;;;;1.77;1.23;;;;;;;2.85;65.60;102044.97;6204493;28;20240;-71
2023/03/28 01:30:35;;;;;;;4.77;1.93;;;;;;;2.80;64.92;102047.84;6177931;28;20244;-70
2023/03/28 01:34:36;;;;;;;0.83;0.83;;;;;;;2.88;65.58;102058.66;6191645;28;20240;-71
2023/03/28 01:38:06;;;;;;;1.17;0.90;;;;;;;2.82;66.12;102064.22;6191174;28;20359;-71
2023/03/28 01:41:38;;;;;;;1.53;0.77;;;;;;;2.80;65.50;102071.31;6200543;28;20240;-70
2023/03/28 01:45:08;;;;;;;1.10;1.00;;;;;;;2.79;65.39;102072.22;6192469;28;20331;-70
2023/03/28 01:48:41;;;;;;;1.20;1.10;;;;;;;2.77;65.56;102073.25;6179805;28;20256;-71
2023/03/28 01:52:08;;;;;;;1.80;0.90;;;;;;;2.67;66.32;102076.38;6195415;28;20242;-70
2023/03/28 01:55:37;;;;;;;2.37;0.77;;;;;;;2.73;65.51;102077.78;6194374;28;20245;-70
2023/03/28 01:59:02;;;;;;;0.67;0.67;;;;;;;2.76;66.13;102075.00;6179315;28;20599;-70
2023/03/28 02:02:52;;;;;;;2.07;1.20;;;;;;;2.65;65.86;102074.78;6163340;28;20233;-70
2023/03/28 02:06:26;;;;;;;1.80;1.37;;;;;;;2.59;66.43;102077.75;6191412;28;20654;-69
2023/03/28 02:09:51;;;;;;;1.43;1.33;;;;;;;2.55;66.89;102076.22;6198565;28;20260;-71
2023/03/28 02:13:29;;;;;;;0.80;0.80;;;;;;;2.59;66.18;102077.75;6193690;28;20649;-71
2023/03/28 02:17:28;;;;;;;3.03;0.80;;;;;;;2.62;65.84;102086.22;6203644;28;20564;-71
2023/03/28 02:21:07;;;;;;;2.60;1.10;;;;;;;2.59;65.23;102080.34;6188920;28;20237;-71
2023/03/28 02:24:55;;;;;;;0.93;0.87;;;;;;;2.54;65.73;102080.59;6193145;28;20229;-70
2023/03/28 02:28:32;;;;;;;0.90;0.80;;;;;;;2.45;65.68;102086.34;6178653;28;20233;-70
2023/03/28 02:32:13;;;;;;;0.90;0.90;;;;;;;2.44;65.71;102087.28;6187955;28;20233;-69
2023/03/28 02:35:46;;;;;;;1.53;1.43;;;;;;;2.50;66.76;102093.88;6183122;28;20229;-70
2023/03/28 02:39:35;;;;;;;0.60;0.60;;;;;;;2.43;65.95;102089.97;6189383;28;20225;-70
2023/03/28 02:43:18;;;;;;;1.03;0.93;;;;;;;2.37;66.38;102102.38;6192244;28;20221;-70
2023/03/28 02:46:51;;;;;;;1.30;1.20;;;;;;;2.36;67.43;102105.91;6188991;28;20229;-70
2023/03/28 02:50:24;;;;;;;0.93;0.90;;;;;;;2.37;66.86;102102.38;6188029;28;20811;-71
2023/03/28 02:53:54;;;;;;;1.20;1.10;;;;;;;2.39;66.56;102104.91;6196733;28;20224;-70
2023/03/28 02:57:24;;;;;;;0.50;0.50;;;;;;;2.31;66.77;102104.47;6196320;28;20236;-71
2023/03/28 03:00:48;;;;;;;3.50;0.90;;;;;;;2.20;67.55;102110.28;6187117;28;20423;-70
2023/03/28 03:04:12;;;;;;;0.57;0.57;;;;;;;2.28;67.23;102109.84;6188022;28;20233;-71
2023/03/28 03:07:33;;;;;;;0.73;0.73;;;;;;;2.36;67.08;102108.53;6192003;28;20233;-70
2023/03/28 03:10:58;;;;;;;0.60;0.60;;;;;;;2.31;66.61;102115.75;6187405;28;20237;-69
2023/03/28 03:14:19;;;;;;;0.70;0.70;;;;;;;2.28;67.08;102113.31;6191448;28;20233;-69
2023/03/28 03:17:41;;;;;;;0.63;0.63;;;;;;;2.33;67.25;102121.72;6169525;28;20249;-70
2023/03/28 03:21:04;;;;;;;0.50;0.50;;;;;;;2.15;67.00;102124.47;6186149;28;20240;-70
2023/03/28 03:24:27;;;;;;;0.90;0.90;;;;;;;2.14;67.47;102121.03;6194643;28;20226;-70
2023/03/28 03:27:53;;;;;;;3.50;0.87;;;;;;;2.18;67.92;102122.56;6186326;28;20245;-70
2023/03/28 03:31:16;;;;;;;0.67;0.67;;;;;;;2.20;67.77;102120.72;6168734;28;20274;-71
2023/03/28 03:35:18;;;;;;;0.57;0.57;;;;;;;2.13;67.72;102134.97;6205839;28;20236;-70
2023/03/28 03:38:40;;;;;;;0.87;0.80;;;;;;;2.10;68.07;102136.91;6185526;28;20245;-70
2023/03/28 03:42:06;;;;;;;1.50;1.40;;;;;;;2.15;68.18;102132.31;6172854;28;20233;-70
2023/03/28 03:45:27;;;;;;;0.63;0.60;;;;;;;2.23;67.77;102151.81;6203167;28;20237;-70
2023/03/28 03:48:48;;;;;;;12.07;7.93;;;;;;;2.26;67.97;102145.59;6164608;28;20316;-70
2023/03/28 03:52:09;;;;;;;5.40;3.33;;;;;;;2.22;68.35;102149.28;6176717;28;20400;-70
2023/03/28 03:55:32;;;;;;;2.13;1.27;;;;;;;2.08;68.61;102142.19;6195465;28;20236;-69
2023/03/28 03:58:53;;;;;;;0.93;0.93;;;;;;;2.13;69.05;102145.41;6173493;28;20230;-70
2023/03/28 04:02:16;;;;;;;1.27;0.60;;;;;;;2.20;68.11;102140.72;6178369;28;20812;-70
2023/03/28 04:05:51;;;;;;;1.23;0.70;;;;;;;2.18;68.30;102147.75;6190314;28;20221;-69
2023/03/28 04:09:12;;;;;;;0.87;0.87;;;;;;;2.15;68.40;102145.31;6172446;28;20233;-69
2023/03/28 04:13:00;;;;;;;2.30;1.00;;;;;;;1.84;69.52;102140.88;6192651;28;20237;-70
2023/03/28 04:16:22;;;;;;;1.50;1.00;;;;;;;1.88;69.51;102137.22;6196451;28;20233;-70
2023/03/28 04:19:51;;;;;;;0.70;0.67;;;;;;;1.71;70.45;102138.94;6200460;28;20237;-70
2023/03/28 04:23:12;;;;;;;1.97;0.80;;;;;;;1.67;71.35;102149.59;6168545;28;20316;-70
2023/03/28 04:26:36;;;;;;;0.97;0.90;;;;;;;1.82;70.71;102150.53;6183792;28;20344;-69
2023/03/28 04:30:08;;;;;;;0.80;0.80;;;;;;;1.87;70.50;102151.16;6191621;28;20232;-70
2023/03/28 04:33:52;;;;;;;0.97;0.70;;;;;;;1.85;71.49;102150.38;6145258;28;20543;-70
2023/03/28 04:37:14;;;;;;;1.53;0.97;;;;;;;1.73;72.75;102154.47;6175640;28;20319;-69
2023/03/28 04:40:43;;;;;;;0.60;0.60;;;;;;;1.86;71.91;102152.06;6187369;28;20616;-70
2023/03/28 04:44:14;;;;;;;1.33;1.23;;;;;;;1.89;72.75;102152.75;6173645;28;20228;-70
2023/03/28 04:47:42;;;;;;;1.53;0.80;;;;;;;1.91;73.38;102157.88;6188566;28;20889;-70
2023/03/28 04:51:10;;;;;;;1.50;1.40;;;;;;;2.00;72.69;102166.06;6186917;28;20228;-70
2023/03/28 04:54:33;;;;;;;1.80;0.87;;;;;;;2.08;73.07;102173.44;6195724;28;20429;-70
2023/03/28 04:58:05;;;;;;;0.80;0.80;;;;;;;2.12;73.16;102171.53;6186655;28;20259;-70
2023/03/28 05:01:26;;;;;;;0.93;0.93;;;;;;;2.04;74.35;102179.72;6187224;28;20783;-70
2023/03/28 05:05:11;;;;;;;1.90;1.03;;;;;;;1.93;75.90;102182.06;6197881;28;20236;-70
2023/03/28 05:08:32;;;;;;;1.27;1.17;;;;;;;1.83;76.45;102186.91;6189409;28;20233;-70
2023/03/28 05:11:54;;;;;;;2.80;1.83;;;;;;;1.83;77.33;102194.72;6186389;28;20237;-70
2023/03/28 05:15:15;;;;;;;2.77;1.20;;;;;;;1.89;77.06;102193.56;6203773;28;20233;-70
2023/03/28 05:18:44;;;;;;;1.17;1.13;;;;;;;1.91;76.45;102202.13;6186337;28;20353;-71
2023/03/28 05:22:07;;;;;;;1.50;1.40;;;;;;;1.95;76.20;102203.66;6179654;28;20583;-69
2023/03/28 05:25:30;;;;;;;1.67;1.10;;;;;;;2.14;75.50;102213.97;6183669;28;20229;-70
2023/03/28 05:28:51;;;;;;;1.53;1.40;;;;;;;2.03;75.90;102212.75;6174661;28;20229;-70
2023/03/28 05:32:12;;;;;;;4.43;1.43;;;;;;;2.14;75.79;102221.78;6169121;28;20855;-70
2023/03/28 05:35:36;;;;;;;1.20;1.10;;;;;;;2.25;74.45;102225.50;6199894;28;20340;-70
2023/03/28 05:38:58;;;;;;;1.30;1.20;;;;;;;2.13;75.20;102227.91;6182011;28;20240;-70
2023/03/28 05:42:20;;;;;;;3.87;1.37;;;;;;;2.20;75.25;102226.66;6172899;28;20595;-70
2023/03/28 05:45:41;;;;;;;1.77;1.57;;;;;;;2.06;75.85;102227.38;6184217;28;20229;-70
2023/03/28 05:49:06;;;;;;;1.73;1.33;;;;;;;2.10;76.28;102231.50;6174766;28;20226;-70
2023/03/28 05:52:27;;;;;;;1.43;1.33;;;;;;;2.28;75.71;102233.13;6186949;28;20260;-68
2023/03/28 05:55:50;;;;;;;2.23;1.13;;;;;;;2.42;75.39;102228.97;6184982;28;20236;-70
2023/03/28 05:59:12;;;;;;;3.63;1.00;;;;;;;2.43;75.67;102230.66;6183910;28;20319;-71
2023/03/28 06:02:33;;;;;;;3.50;1.90;;;;;;;2.42;76.39;102235.03;6173107;28;20229;-71
2023/03/28 06:05:55;;;;;;;1.87;1.63;;;;;;;2.63;75.32;102231.28;6199851;28;20260;-73
2023/03/28 06:09:20;;;;;;;1.97;1.60;;;;;;;2.58;75.48;102235.88;6178988;28;20237;-71
2023/03/28 06:12:51;;;;;;;4.83;2.40;;;;;;;2.80;74.86;102232.94;6181680;28;20324;-73
2023/03/28 06:16:12;;;;;;;3.63;1.90;;;;;;;2.92;74.10;102240.13;6200595;28;20356;-73
2023/03/28 06:19:34;;;;;;;5.50;1.60;;;;;;;2.72;75.42;102240.34;6167168;28;20242;-73
2023/03/28 06:22:54;;;;;;;3.00;1.57;;;;;;;2.83;75.48;102238.00;6165318;28;20237;-70
2023/03/28 06:26:16;;;;;;;2.97;2.03;;;;;;;2.91;75.51;102240.19;6193215;28;20225;-69
2023/03/28 06:29:38;;;;;;;1.57;1.47;;;;;;;2.99;75.63;102248.41;6155514;28;20244;-68
2023/03/28 06:32:59;;;;;;;6.10;2.27;;;;;;;3.00;76.18;102239.66;6160022;28;20677;-70
2023/03/28 06:36:20;;;;;;;5.20;2.20;;;;;;;3.12;76.27;102244.22;6198302;28;20236;-71
2023/03/28 06:39:41;;;;;;;5.40;2.00;;;;;;;3.39;74.71;102247.84;6172509;28;20229;-73
2023/03/28 06:43:03;;;;;;;1.67;1.57;;;;;;;3.67;74.07;102251.47;6190408;28;20233;-68
2023/03/28 06:46:41;;;;;;;1.90;1.10;;;;;;;3.55;74.41;102255.66;6211217;28;20236;-69
2023/03/28 06:50:06;;;;;;;2.07;1.60;;;;;;;3.57;74.27;102256.41;6192379;28;20229;-71
2023/03/28 06:53:32;;;;;;;3.70;1.70;;;;;;;3.61;74.85;102260.53;6182073;28;20232;-70
2023/03/28 06:56:53;;;;;;;4.80;1.63;;;;;;;3.59;74.35;102266.78;6196249;28;21498;-69
2023/03/28 07:00:15;;;;;;;1.40;1.30;;;;;;;3.66;74.52;102273.31;6211868;28;20240;-68
2023/03/28 07:03:58;;;;;;;1.70;1.40;;;;;;;3.69;75.13;102273.97;6196167;28;20281;-69
2023/03/28 07:07:21;;;;;;;3.90;1.70;;;;;;;3.66;74.74;102281.97;6197109;28;20256;-69
2023/03/28 07:10:42;;;;;;;5.70;1.40;;;;;;;3.66;74.97;102279.38;6212151;28;20233;-68
2023/03/28 07:14:03;;;;;;;3.07;1.60;;;;;;;3.82;75.15;102288.94;6199177;28;20277;-69
2023/03/28 07:17:24;;;;;;;2.00;1.60;;;;;;;3.98;74.05;102287.94;6198238;28;20241;-69
2023/03/28 07:20:47;;;;;;;2.90;1.73;;;;;;;4.17;73.43;102298.13;6217476;28;20241;-69
2023/03/28 07:24:08;;;;;;;2.50;1.40;;;;;;;4.45;72.31;102307.78;6186095;28;20237;-70
2023/03/28 07:27:40;;;;;;;6.37;1.47;;;;;;;4.38;71.50;102304.69;6175080;28;20233;-69
2023/03/28 07:31:03;;;;;;;3.90;1.70;;;;;;;4.50;71.06;102317.97;6202116;28;20260;-69
2023/03/28 07:34:24;;;;;;;6.77;1.67;;;;;;;4.64;70.07;102318.81;6192807;28;20629;-71
2023/03/28 07:37:47;;;;;;;7.07;1.67;;;;;;;4.76;69.83;102318.03;6173531;28;20530;-69
2023/03/28 07:41:29;;;;;;;4.30;2.33;;;;;;;5.10;68.05;102316.78;6185459;28;20232;-73
2023/03/28 07:44:50;;;;;;;2.80;1.37;;;;;;;5.27;66.41;102322.72;6193920;28;20233;-72
2023/03/28 07:48:11;;;;;;;1.33;1.20;;;;;;;5.31;65.77;102318.97;6203005;28;20224;-70
2023/03/28 07:51:32;;;;;;;2.90;1.73;;;;;;;5.41;64.70;102322.69;6198826;28;20265;-72
2023/03/28 07:54:55;;;;;;;3.43;1.27;;;;;;;5.39;64.41;102325.41;6181910;28;20257;-69
2023/03/28 07:58:16;;;;;;;3.33;3.00;;;;;;;5.54;62.99;102325.34;6186325;28;20603;-69
2023/03/28 08:01:39;;;;;;;2.17;2.07;;;;;;;5.97;67.12;102331.25;6187539;28;20232;-68
2023/03/28 08:05:00;;;;;;;1.43;1.07;;;;;;;6.16;64.94;102322.06;6203577;28;20248;-68
2023/03/28 08:08:21;;;;;;;3.13;1.87;;;;;;;6.29;65.46;102331.72;6192782;28;20308;-66
2023/03/28 08:11:56;;;;;;;2.17;1.40;;;;;;;6.53;62.44;102335.31;6169498;28;20241;-70
2023/03/28 08:15:19;;;;;;;1.03;1.03;;;;;;;6.61;59.72;102332.97;6172405;28;23393;-67
2023/03/28 08:18:40;;;;;;;3.80;1.70;;;;;;;6.57;57.95;102336.75;6184980;28;20245;-71
2023/03/28 08:22:02;;;;;;;5.30;1.80;;;;;;;6.43;54.97;102342.94;6179116;28;20240;-71
2023/03/28 08:25:24;;;;;;;4.27;1.20;;;;;;;6.35;53.55;102342.63;6195595;28;20253;-71
2023/03/28 08:28:47;;;;;;;2.53;1.27;;;;;;;6.47;53.31;102346.19;6181371;28;20256;-71
2023/03/28 08:32:08;;;;;;;0.90;0.90;;;;;;;6.40;51.65;102343.16;6183062;28;20244;-71
2023/03/28 08:35:29;;;;;;;2.00;1.43;;;;;;;6.46;52.93;102348.00;6162823;28;20606;-70
2023/03/28 08:38:59;;;;;;;2.43;1.07;;;;;;;6.50;53.19;102353.88;6185289;28;20232;-72
2023/03/28 08:42:34;;;;;;;1.20;1.10;;;;;;;6.40;52.42;102343.16;6188925;28;20241;-70
2023/03/28 08:45:58;;;;;;;1.17;1.10;;;;;;;6.77;52.79;102346.72;6194329;28;20584;-69
2023/03/28 08:49:19;;;;;;;1.23;1.07;;;;;;;6.78;52.64;102352.78;6186734;28;20548;-72
2023/03/28 08:52:40;;;;;;;0.80;0.80;;;;;;;7.03;51.16;102349.28;6187774;28;20237;-71
2023/03/28 08:56:04;;;;;;;1.80;1.27;;;;;;;7.24;52.49;102347.75;6189163;28;21054;-72
2023/03/28 08:59:32;;;;;;;2.73;0.97;;;;;;;7.36;51.60;102356.56;6201817;28;20272;-73
2023/03/28 09:02:55;;;;;;;4.23;3.53;;;;;;;7.33;50.68;102351.50;6182125;28;20241;-72
2023/03/28 09:06:25;;;;;;;2.13;1.83;;;;;;;6.81;52.47;102350.78;6198387;28;20220;-70
2023/03/28 09:09:55;;;;;;;4.20;1.50;;;;;;;6.86;53.72;102347.84;6201871;28;20528;-69
2023/03/28 09:13:38;;;;;;;2.23;1.07;;;;;;;7.29;53.63;102360.56;6188964;28;20233;-72
2023/03/28 09:17:09;;;;;;;1.97;1.03;;;;;;;7.80;52.45;102353.31;6192109;28;20236;-70
2023/03/28 09:20:39;;;;;;;2.17;1.00;;;;;;;7.54;52.68;102355.22;6182522;28;20236;-71
2023/03/28 09:24:27;;;;;;;3.07;1.40;;;;;;;7.37;52.68;102360.84;6183436;28;20237;-70
2023/03/28 09:28:18;;;;;;;4.90;1.20;;;;;;;7.51;52.95;102361.53;6172327;28;20225;-72
2023/03/28 09:31:44;;;;;;;2.73;1.30;;;;;;;7.39;53.26;102362.41;6204101;28;20237;-70
2023/03/28 09:35:15;;;;;;;1.70;1.60;;;;;;;7.71;52.51;102348.72;6191128;28;20225;-69
2023/03/28 09:38:43;;;;;;;2.80;1.00;;;;;;;8.58;51.47;102343.81;6175997;28;20329;-73
2023/03/28 09:42:12;;;;;;;2.17;1.97;;;;;;;9.04;50.28;102349.91;6175445;28;20241;-72
2023/03/28 09:45:59;;;;;;;12.63;1.67;;;;;;;8.58;47.88;102348.28;6209928;28;20519;-72
2023/03/28 09:49:45;;;;;;;2.03;1.83;;;;;;;8.76;47.04;102351.28;6188744;28;22127;-74
2023/03/28 09:53:20;;;;;;;1.13;0.90;;;;;;;9.05;45.66;102348.97;6191682;28;20229;-76
2023/03/28 09:56:45;;;;;;;1.10;0.80;;;;;;;8.05;50.03;102349.69;6174578;28;20639;-75
2023/03/28 10:00:33;;;;;;;0.77;0.70;;;;;;;7.97;51.03;102365.19;6200621;28;20237;-71
2023/03/28 10:04:16;;;;;;;6.23;1.17;;;;;;;8.32;49.90;102376.59;6199143;28;20257;-72
2023/03/28 10:07:58;;;;;;;0.77;0.73;;;;;;;9.08;48.38;102367.16;6194788;28;20256;-72
2023/03/28 10:11:21;;;;;;;1.43;0.90;;;;;;;8.35;48.34;102359.72;6206926;28;20257;-74
2023/03/28 10:14:47;;;;;;;1.50;0.60;;;;;;;8.52;48.18;102360.09;6186303;28;20221;-71
2023/03/28 10:18:43;;;;;;;1.87;1.20;;;;;;;8.76;47.58;102364.44;6185770;28;20502;-73
2023/03/28 10:22:10;;;;;;;1.10;1.07;;;;;;;8.75;45.31;102360.13;6182144;28;20236;-73
2023/03/28 10:25:38;;;;;;;1.13;0.83;;;;;;;8.62;46.49;102367.28;6193230;28;20236;-73
2023/03/28 10:29:03;;;;;;;5.67;1.50;;;;;;;8.13;47.14;102358.66;6171831;28;20642;-73
2023/03/28 10:32:27;;;;;;;2.63;1.33;;;;;;;7.97;49.56;102365.19;6163056;28;20333;-73
2023/03/28 10:36:11;;;;;;;5.17;1.93;;;;;;;7.93;50.07;102366.38;6194489;28;20594;-74
2023/03/28 10:39:32;;;;;;;2.63;1.40;;;;;;;7.72;51.20;102376.69;6171837;28;20241;-73
2023/03/28 10:43:34;;;;;;;6.43;1.77;;;;;;;7.76;51.24;102376.34;6111207;28;20325;-74
2023/03/28 10:47:11;;;;;;;4.77;1.40;;;;;;;7.73;51.67;102381.81;6124736;28;20230;-73
2023/03/28 10:50:51;;;;;;;1.93;1.07;;;;;;;7.94;49.62;102381.19;6179677;28;20233;-74
2023/03/28 10:54:25;;;;;;;2.20;1.30;;;;;;;8.44;48.78;102377.44;6173271;28;20225;-74
2023/03/28 10:57:55;;;;;;;4.40;1.63;;;;;;;10.45;44.70;102371.72;6163734;28;20229;-73
2023/03/28 11:01:19;;;;;;;0.77;0.60;;;;;;;12.08;39.81;102365.19;6177831;28;20781;-74
2023/03/28 11:05:18;;;;;;;1.00;0.90;;;;;;;10.56;39.53;102361.91;6184604;28;20230;-74
2023/03/28 11:08:52;;;;;;;1.33;0.83;;;;;;;10.00;41.95;102368.44;6157630;28;20851;-72
2023/03/28 11:12:35;;;;;;;4.33;1.63;;;;;;;10.04;43.07;102367.25;6148988;28;20737;-71
2023/03/28 11:15:59;;;;;;;5.60;0.93;;;;;;;10.35;41.52;102366.38;6179149;28;20796;-71
2023/03/28 11:19:43;;;;;;;2.57;1.00;;;;;;;12.17;38.55;102361.69;6184863;28;20610;-73
2023/03/28 11:23:32;;;;;;;2.33;1.17;;;;;;;11.91;36.90;102361.44;6173037;28;20229;-72
2023/03/28 11:27:35;;;;;;;2.23;1.30;;;;;;;11.89;37.65;102352.81;6171026;28;20230;-72
2023/03/28 11:31:05;;;;;;;3.13;1.27;;;;;;;11.20;38.16;102374.00;6176848;28;20237;-72
2023/03/28 11:34:38;;;;;;;3.13;0.83;;;;;;;10.11;41.87;102368.41;6198188;28;20270;-73
2023/03/28 11:38:03;;;;;;;3.37;1.87;;;;;;;8.81;44.19;102365.72;6161651;28;20230;-72
2023/03/28 11:41:31;;;;;;;3.03;2.20;;;;;;;10.69;41.73;102355.56;6176254;28;20572;-73
2023/03/28 11:45:07;;;;;;;7.47;1.27;;;;;;;11.14;40.15;102356.84;6181994;28;20241;-71
2023/03/28 11:48:34;;;;;;;5.63;2.20;;;;;;;11.69;37.99;102353.75;6189615;28;20241;-73
2023/03/28 11:52:06;;;;;;;3.20;1.40;;;;;;;8.21;46.68;102358.09;6183420;28;20237;-70
2023/03/28 11:55:32;;;;;;;1.50;1.20;;;;;;;8.22;49.15;102351.88;6186382;28;20263;-73
2023/03/28 11:59:01;;;;;;;1.33;1.00;;;;;;;11.98;42.97;102344.00;6165138;28;20245;-73
2023/03/28 12:02:37;;;;;;;4.83;1.10;;;;;;;13.90;35.93;102341.44;6168793;28;20264;-69
2023/03/28 12:06:03;;;;;;;3.03;1.03;;;;;;;10.56;45.70;102342.59;6193808;28;20233;-69
2023/03/28 12:09:34;;;;;;;1.17;0.90;;;;;;;10.41;45.94;102334.16;6191955;28;20230;-71
2023/03/28 12:13:04;;;;;;;4.17;1.77;;;;;;;11.17;44.43;102343.38;6173872;28;20229;-72
2023/03/28 12:16:35;;;;;;;1.10;1.00;;;;;;;11.73;42.84;102329.53;6193381;28;20319;-73
2023/03/28 12:19:58;;;;;;;4.17;1.10;;;;;;;12.70;40.02;102327.53;6197582;28;20229;-71
2023/03/28 12:23:29;;;;;;;6.17;2.20;;;;;;;9.60;46.26;102340.94;6165297;28;20319;-71
2023/03/28 12:27:24;;;;;;;2.23;1.00;;;;;;;7.93;53.46;102338.28;6194119;28;20236;-70
2023/03/28 12:30:55;;;;;;;4.27;1.23;;;;;;;7.42;55.70;102346.44;6185674;28;20311;-72
2023/03/28 12:34:28;;;;;;;3.63;1.47;;;;;;;8.13;54.05;102342.06;6188273;28;20985;-71
2023/03/28 12:38:28;;;;;;;4.47;1.77;;;;;;;7.86;56.08;102342.34;6179421;28;20793;-71
2023/03/28 12:41:59;;;;;;;4.40;2.30;;;;;;;7.49;57.36;102337.16;6176796;28;21210;-71
2023/03/28 12:45:25;;;;;;;2.30;1.33;;;;;;;7.73;57.44;102336.31;6187474;28;20228;-71
2023/03/28 12:48:51;;;;;;;2.23;1.10;;;;;;;8.01;56.02;102337.72;6181028;28;20241;-74
2023/03/28 12:52:22;;;;;;;1.77;1.27;;;;;;;7.83;56.31;102334.69;6187983;28;20232;-69
2023/03/28 12:55:47;;;;;;;1.70;1.60;;;;;;;7.77;56.95;102343.84;6184899;28;20221;-72
2023/03/28 12:59:35;;;;;;;1.97;0.90;;;;;;;7.86;54.61;102348.44;6197095;28;20228;-70
2023/03/28 13:03:17;;;;;;;4.03;1.20;;;;;;;7.87;54.55;102351.91;6194063;28;20459;-70
2023/03/28 13:06:48;;;;;;;3.70;1.20;;;;;;;7.68;54.59;102351.59;6202275;28;20229;-70
2023/03/28 13:10:20;;;;;;;1.27;0.90;;;;;;;7.60;53.51;102351.31;6202304;28;20225;-70
2023/03/28 13:13:50;;;;;;;0.90;0.90;;;;;;;7.60;54.26;102348.69;6190998;28;20296;-71
2023/03/28 13:17:20;;;;;;;2.87;1.90;;;;;;;7.72;54.83;102347.75;6186712;28;20233;-70
2023/03/28 13:20:45;;;;;;;2.37;1.10;;;;;;;7.92;55.31;102355.00;6197436;28;20233;-73
2023/03/28 13:24:26;;;;;;;2.73;1.37;;;;;;;8.09;56.00;102348.50;6175768;28;20230;-72
2023/03/28 13:27:49;;;;;;;3.43;1.33;;;;;;;8.39;55.85;102340.94;6190492;28;20240;-72
2023/03/28 13:31:20;;;;;;;1.53;1.20;;;;;;;8.70;54.24;102336.78;6203730;28;20230;-70
2023/03/28 13:34:47;;;;;;;1.53;0.90;;;;;;;9.56;52.13;102326.31;6191388;28;20623;-72
2023/03/28 13:38:22;;;;;;;3.23;1.10;;;;;;;9.86;49.85;102320.34;6193575;28;20312;-71
2023/03/28 13:42:00;;;;;;;1.53;0.87;;;;;;;10.01;48.86;102310.28;6193115;28;20602;-72
2023/03/28 13:45:24;;;;;;;1.90;1.80;;;;;;;10.88;47.47;102303.66;6205170;28;20283;-72
2023/03/28 13:48:52;;;;;;;4.93;1.27;;;;;;;12.78;41.32;102301.13;6183458;28;20229;-68
2023/03/28 13:52:17;;;;;;;1.93;1.60;;;;;;;12.18;41.71;102291.91;6198579;28;20272;-70
2023/03/28 13:55:38;;;;;;;2.17;1.33;;;;;;;14.40;37.27;102292.97;6201816;28;20230;-69
2023/03/28 13:59:03;;;;;;;1.27;0.80;;;;;;;13.60;38.14;102290.41;6200537;28;20572;-69
2023/03/28 14:02:32;;;;;;;3.47;1.93;;;;;;;12.29;40.40;102286.41;6198422;28;20573;-71
2023/03/28 14:05:55;;;;;;;3.07;1.60;;;;;;;11.61;42.72;102281.22;6203092;28;20319;-71
2023/03/28 14:09:19;;;;;;;1.70;0.80;;;;;;;11.09;43.57;102279.78;6197097;28;20233;-70
2023/03/28 14:12:40;;;;;;;3.13;1.60;;;;;;;10.72;45.08;102284.84;6181186;28;20229;-70
2023/03/28 14:16:01;;;;;;;6.43;1.97;;;;;;;10.61;45.59;102282.31;6204294;28;20233;-71
2023/03/28 14:19:32;;;;;;;1.67;1.40;;;;;;;10.62;45.25;102270.75;6182908;28;21101;-72
2023/03/28 14:22:56;;;;;;;1.97;1.40;;;;;;;11.49;44.36;102250.63;6189652;28;20228;-73
2023/03/28 14:26:20;;;;;;;2.87;1.33;;;;;;;11.73;42.37;102252.81;6186949;28;20322;-73
2023/03/28 14:29:53;;;;;;;1.83;1.73;;;;;;;10.98;43.42;102247.38;6192162;28;20629;-73
2023/03/28 14:33:20;;;;;;;1.87;1.17;;;;;;;10.63;44.32;102238.09;6210781;28;20593;-73
2023/03/28 14:36:57;;;;;;;2.23;1.60;;;;;;;11.47;42.78;102242.00;6202822;28;20233;-72
2023/03/28 14:40:29;;;;;;;3.03;1.77;;;;;;;10.34;47.40;102245.09;6197945;28;20572;-74
2023/03/28 14:43:52;;;;;;;2.83;1.50;;;;;;;10.26;55.09;102237.84;6170712;28;20237;-73
2023/03/28 14:47:16;;;;;;;4.40;1.93;;;;;;;10.63;48.62;102230.19;6192359;28;20569;-72
2023/03/28 14:50:39;;;;;;;1.50;1.40;;;;;;;10.39;53.93;102222.63;6202994;28;20218;-74
2023/03/28 14:54:03;;;;;;;6.13;2.50;;;;;;;9.03;51.67;102229.75;6180635;28;20244;-75
2023/03/28 14:57:26;;;;;;;2.30;1.07;;;;;;;9.02;51.43;102228.91;6184366;28;20229;-75
2023/03/28 15:00:50;;;;;;;5.87;2.73;;;;;;;8.93;50.92;102216.47;6181755;28;20268;-73
2023/03/28 15:04:13;;;;;;;4.97;3.13;;;;;;;9.29;48.83;102209.16;6182875;28;20717;-73
2023/03/28 15:07:36;;;;;;;3.30;2.33;;;;;;;9.90;47.29;102204.88;6186307;28;20356;-74
2023/03/28 15:11:02;;;;;;;4.27;2.13;;;;;;;9.49;47.73;102196.00;6187235;28;20245;-73
2023/03/28 15:14:31;;;;;;;2.27;1.40;;;;;;;9.34;49.20;102189.38;6178710;28;20618;-73
2023/03/28 15:17:55;;;;;;;2.40;2.13;;;;;;;9.18;49.43;102197.72;6185265;28;20291;-74
2023/03/28 15:21:16;;;;;;;5.60;2.17;;;;;;;9.42;48.50;102186.13;6191911;28;20237;-73
2023/03/28 15:24:38;;;;;;;7.10;1.67;;;;;;;9.69;47.63;102188.25;6182282;28;20229;-74
2023/03/28 15:28:02;;;;;;;3.30;2.23;;;;;;;8.80;47.67;102178.94;6182390;28;20244;-73
2023/03/28 15:31:25;;;;;;;2.17;1.57;;;;;;;8.64;46.24;102181.13;6193057;28;20265;-74
2023/03/28 15:34:47;;;;;;;2.67;1.27;;;;;;;8.80;45.99;102177.16;6194538;28;20646;-74
2023/03/28 15:38:15;;;;;;;5.57;2.63;;;;;;;9.16;44.68;102162.75;6184517;28;20225;-73
2023/03/28 15:41:42;;;;;;;1.60;1.50;;;;;;;9.52;45.72;102163.28;6208686;28;20527;-74
2023/03/28 15:45:28;;;;;;;3.77;1.83;;;;;;;9.13;45.43;102152.47;6195996;28;20240;-74
2023/03/28 15:48:50;;;;;;;4.00;1.90;;;;;;;9.21;41.93;102149.22;6188551;28;20233;-73
2023/03/28 15:52:17;;;;;;;2.10;1.87;;;;;;;9.45;40.40;102139.25;6177211;28;20230;-73
2023/03/28 15:55:40;;;;;;;1.47;1.37;;;;;;;9.16;39.42;102139.06;6192899;28;20236;-74
2023/03/28 15:59:04;;;;;;;1.17;0.93;;;;;;;9.47;39.27;102134.69;6182914;28;20316;-77
2023/03/28 16:02:32;;;;;;;4.73;1.33;;;;;;;9.03;36.82;102133.16;6189814;28;20254;-75
2023/03/28 16:05:59;;;;;;;1.10;1.00;;;;;;;8.84;37.22;102132.97;6203487;28;20249;-74
2023/03/28 16:09:22;;;;;;;4.97;1.30;;;;;;;8.71;36.31;102145.47;6192775;28;20226;-75
2023/03/28 16:12:44;;;;;;;1.53;1.40;;;;;;;8.87;35.82;102127.44;6197713;28;20225;-74
2023/03/28 16:16:33;;;;;;;2.10;1.90;;;;;;;8.70;36.51;102128.84;6193920;28;20236;-74
2023/03/28 16:20:16;;;;;;;3.80;2.30;;;;;;;8.90;36.41;102117.50;6210447;28;20236;-75